Time;durP1;ratioP1;P1;durP2;ratioP2;P2;SDS_P1;SDS_P2;PMS_P1;PMS_P2;Temp;Humidity;BMP_temperature;BMP_pressure;BME280_temperature;BME280_humidity;BME280_pressure;Samples;Min_cycle;Max_cycle;Signal;HPM_P1;HPM_P2
2021/06/13 00:00:59;;;;;;;10.35;7.53;;;;;;;;;;5076651;28;20044;-82
2021/06/13 00:03:25;;;;;;;10.00;8.00;;;;;;;;;;5076835;28;20024;-82
2021/06/13 00:05:51;;;;;;;13.80;7.88;;;;;;;;;;5095219;28;20039;-83
2021/06/13 00:08:17;;;;;;;8.70;7.22;;;;;;;;;;5097874;28;20020;-82
2021/06/13 00:10:43;;;;;;;8.20;7.32;;;;;;;;;;5098070;28;20017;-83
2021/06/13 00:13:11;;;;;;;8.73;6.95;;;;;;;;;;5098104;28;20021;-83
2021/06/13 00:15:38;;;;;;;8.73;6.88;;;;;;;;;;5097412;28;20028;-83
2021/06/13 00:18:04;;;;;;;10.55;7.35;;;;;;;;;;5098182;28;20035;-84
2021/06/13 00:20:30;;;;;;;10.45;6.70;;;;;;;;;;5098119;28;20054;-84
2021/06/13 00:22:56;;;;;;;7.38;6.60;;;;;;;;;;5098093;28;20064;-83
2021/06/13 00:25:23;;;;;;;8.95;7.03;;;;;;;;;;5097731;28;20446;-83
2021/06/13 00:27:49;;;;;;;8.38;6.60;;;;;;;;;;5096723;28;20089;-84
2021/06/13 00:30:16;;;;;;;6.97;6.28;;;;;;;;;;5098146;28;20039;-84
2021/06/13 00:32:42;;;;;;;10.18;6.97;;;;;;;;;;5096294;28;20033;-84
2021/06/13 00:35:08;;;;;;;7.60;6.57;;;;;;;;;;5097149;28;20032;-84
2021/06/13 00:37:34;;;;;;;9.13;6.75;;;;;;;;;;5097015;28;20071;-84
2021/06/13 00:40:01;;;;;;;10.73;6.90;;;;;;;;;;5097705;28;20031;-84
2021/06/13 00:42:27;;;;;;;8.45;6.38;;;;;;;;;;5097861;28;20030;-83
2021/06/13 00:45:03;;;;;;;7.22;6.53;;;;;;;;;;5095970;28;20024;-84
2021/06/13 00:47:29;;;;;;;8.63;6.45;;;;;;;;;;5097141;28;20044;-82
2021/06/13 00:49:55;;;;;;;8.10;6.50;;;;;;;;;;5097251;28;20409;-82
2021/06/13 00:52:23;;;;;;;6.75;6.03;;;;;;;;;;5097181;28;20393;-82
2021/06/13 00:54:49;;;;;;;9.38;5.95;;;;;;;;;;5097298;28;20088;-82
2021/06/13 00:57:15;;;;;;;7.82;6.80;;;;;;;;;;5097058;28;20028;-82
2021/06/13 00:59:41;;;;;;;8.35;6.60;;;;;;;;;;5096003;28;20036;-81
2021/06/13 01:02:07;;;;;;;8.20;6.35;;;;;;;;;;5095994;28;20024;-82
2021/06/13 01:04:33;;;;;;;13.25;7.93;;;;;;;;;;5097307;28;20035;-82
2021/06/13 01:07:04;;;;;;;8.50;6.28;;;;;;;;;;5097546;28;20031;-85
2021/06/13 01:09:33;;;;;;;6.97;6.18;;;;;;;;;;5097570;28;20325;-85
2021/06/13 01:11:59;;;;;;;7.03;6.30;;;;;;;;;;5097403;28;20133;-85
2021/06/13 01:14:47;;;;;;;9.02;7.57;;;;;;;;;;5097619;28;20047;-85
2021/06/13 01:17:32;;;;;;;9.43;6.63;;;;;;;;;;5096365;28;20028;-85
2021/06/13 01:20:19;;;;;;;9.20;6.65;;;;;;;;;;5096252;28;20069;-83
2021/06/13 01:22:51;;;;;;;9.27;7.95;;;;;;;;;;5097247;28;20106;-83
2021/06/13 01:25:36;;;;;;;9.00;8.02;;;;;;;;;;5096689;28;20046;-84
2021/06/13 01:28:08;;;;;;;8.02;7.18;;;;;;;;;;5098184;28;20077;-85
2021/06/13 01:30:54;;;;;;;9.60;6.65;;;;;;;;;;5101665;28;20024;-85
2021/06/13 01:33:21;;;;;;;11.27;7.32;;;;;;;;;;5101365;28;20066;-85
2021/06/13 01:35:48;;;;;;;16.30;7.78;;;;;;;;;;5101169;28;20028;-85
2021/06/13 01:38:16;;;;;;;15.15;8.88;;;;;;;;;;5101012;28;20520;-85
2021/06/13 01:40:43;;;;;;;13.27;8.20;;;;;;;;;;5101049;28;20398;-85
2021/06/13 01:43:10;;;;;;;13.35;8.27;;;;;;;;;;5100882;28;20024;-84
2021/06/13 01:45:39;;;;;;;10.80;7.78;;;;;;;;;;5098481;28;20506;-84
2021/06/13 01:48:09;;;;;;;10.05;8.25;;;;;;;;;;5100876;28;20050;-84
2021/06/13 01:50:36;;;;;;;9.70;8.70;;;;;;;;;;5100676;28;20024;-84
2021/06/13 01:53:05;;;;;;;9.90;8.02;;;;;;;;;;5100970;28;20099;-83
2021/06/13 01:55:31;;;;;;;9.23;7.82;;;;;;;;;;5100590;28;20020;-83
2021/06/13 01:57:59;;;;;;;9.15;8.13;;;;;;;;;;5100441;28;20111;-83
2021/06/13 02:00:25;;;;;;;8.90;7.95;;;;;;;;;;5100472;28;20351;-84
2021/06/13 02:02:53;;;;;;;11.23;9.18;;;;;;;;;;5100307;28;20024;-85
2021/06/13 02:05:20;;;;;;;11.20;8.30;;;;;;;;;;5100592;28;20024;-84
2021/06/13 02:07:47;;;;;;;10.57;8.45;;;;;;;;;;5099463;28;20043;-84
2021/06/13 02:10:16;;;;;;;8.98;7.97;;;;;;;;;;5100538;28;20016;-83
2021/06/13 02:12:43;;;;;;;10.10;9.05;;;;;;;;;;5099268;28;20028;-84
2021/06/13 02:15:09;;;;;;;8.95;8.15;;;;;;;;;;5100387;28;20295;-83
2021/06/13 02:17:36;;;;;;;13.75;9.32;;;;;;;;;;5100154;28;20057;-83
2021/06/13 02:20:06;;;;;;;9.77;8.52;;;;;;;;;;5098962;28;20024;-84
2021/06/13 02:22:33;;;;;;;10.05;9.15;;;;;;;;;;5100526;28;20035;-85
2021/06/13 02:24:59;;;;;;;10.32;8.38;;;;;;;;;;5099248;28;20043;-84
2021/06/13 02:27:27;;;;;;;9.52;8.52;;;;;;;;;;5099677;28;20032;-83
2021/06/13 02:29:53;;;;;;;9.80;8.65;;;;;;;;;;5099833;28;20051;-83
2021/06/13 02:32:19;;;;;;;9.65;8.65;;;;;;;;;;5100214;28;20020;-84
2021/06/13 02:34:47;;;;;;;11.52;8.80;;;;;;;;;;5098802;28;20020;-84
2021/06/13 02:37:13;;;;;;;10.02;8.80;;;;;;;;;;5100209;28;20048;-84
2021/06/13 02:39:39;;;;;;;9.85;8.77;;;;;;;;;;5099808;28;20020;-83
2021/06/13 02:42:05;;;;;;;10.20;8.98;;;;;;;;;;5099688;28;20118;-84
2021/06/13 02:45:09;;;;;;;11.95;9.57;;;;;;;;;;5100072;28;20401;-84
2021/06/13 02:47:35;;;;;;;9.82;8.82;;;;;;;;;;5099431;28;20055;-84
2021/06/13 02:50:02;;;;;;;9.50;8.60;;;;;;;;;;5099715;28;20081;-84
2021/06/13 02:52:33;;;;;;;11.30;8.93;;;;;;;;;;5099759;28;20024;-84
2021/06/13 02:55:00;;;;;;;9.45;8.48;;;;;;;;;;5099831;28;20020;-84
2021/06/13 02:57:28;;;;;;;9.95;8.90;;;;;;;;;;5099409;28;20032;-84
2021/06/13 02:59:56;;;;;;;12.00;9.15;;;;;;;;;;5099316;28;20066;-84
2021/06/13 03:02:25;;;;;;;9.95;8.95;;;;;;;;;;5099488;28;20342;-84
2021/06/13 03:04:51;;;;;;;11.43;8.80;;;;;;;;;;5099609;28;20031;-84
2021/06/13 03:07:18;;;;;;;12.32;8.88;;;;;;;;;;5099351;28;20016;-84
2021/06/13 03:09:44;;;;;;;9.82;8.55;;;;;;;;;;5099347;28;20043;-83
2021/06/13 03:12:12;;;;;;;10.18;9.18;;;;;;;;;;5099425;28;20024;-83
2021/06/13 03:14:57;;;;;;;11.35;9.20;;;;;;;;;;5098231;28;20069;-83
2021/06/13 03:17:24;;;;;;;10.20;8.80;;;;;;;;;;5098901;28;20412;-83
2021/06/13 03:19:51;;;;;;;10.40;9.13;;;;;;;;;;5098978;28;20036;-84
2021/06/13 03:22:17;;;;;;;12.43;9.27;;;;;;;;;;5099109;28;20031;-84
2021/06/13 03:24:45;;;;;;;10.63;9.52;;;;;;;;;;5097956;28;20132;-84
2021/06/13 03:27:11;;;;;;;12.18;9.63;;;;;;;;;;5099334;28;20439;-84
2021/06/13 03:29:42;;;;;;;12.35;9.50;;;;;;;;;;5099200;28;20024;-84
2021/06/13 03:32:09;;;;;;;12.90;10.10;;;;;;;;;;5099111;28;20020;-84
2021/06/13 03:34:36;;;;;;;12.95;9.77;;;;;;;;;;5099078;28;20036;-84
2021/06/13 03:37:02;;;;;;;10.98;9.88;;;;;;;;;;5099028;28;20021;-84
2021/06/13 03:39:29;;;;;;;13.75;9.43;;;;;;;;;;5099159;28;20024;-85
2021/06/13 03:41:55;;;;;;;11.07;9.98;;;;;;;;;;5098011;28;20103;-85
2021/06/13 03:44:21;;;;;;;10.18;9.18;;;;;;;;;;5098996;28;20059;-86
2021/06/13 03:46:47;;;;;;;12.00;9.95;;;;;;;;;;5098574;28;20044;-86
2021/06/13 03:49:16;;;;;;;10.63;9.40;;;;;;;;;;5097692;28;20023;-85
2021/06/13 03:51:42;;;;;;;12.40;10.18;;;;;;;;;;5098146;28;20027;-85
2021/06/13 03:54:09;;;;;;;11.65;9.40;;;;;;;;;;5098910;28;20061;-85
2021/06/13 03:56:38;;;;;;;10.50;9.43;;;;;;;;;;5098286;28;20032;-85
2021/06/13 03:59:04;;;;;;;11.02;9.07;;;;;;;;;;5097498;28;20028;-85
2021/06/13 04:01:31;;;;;;;10.80;8.88;;;;;;;;;;5098582;28;20032;-83
2021/06/13 04:03:57;;;;;;;13.27;9.27;;;;;;;;;;5097238;28;20054;-83
2021/06/13 04:06:24;;;;;;;10.40;9.40;;;;;;;;;;5097898;28;20028;-83
2021/06/13 04:08:51;;;;;;;10.40;7.90;;;;;;;;;;5098234;28;20111;-84
2021/06/13 04:11:19;;;;;;;9.25;8.35;;;;;;;;;;5098140;28;20027;-83
2021/06/13 04:13:45;;;;;;;11.85;8.57;;;;;;;;;;5098206;28;20107;-83
2021/06/13 04:16:30;;;;;;;10.00;8.98;;;;;;;;;;5098152;28;20028;-84
2021/06/13 04:18:56;;;;;;;9.75;8.45;;;;;;;;;;5097014;28;20059;-84
2021/06/13 04:21:23;;;;;;;11.68;7.85;;;;;;;;;;5097852;28;20035;-84
2021/06/13 04:23:49;;;;;;;9.23;8.18;;;;;;;;;;5097145;28;20054;-85
2021/06/13 04:26:17;;;;;;;9.50;8.38;;;;;;;;;;5097981;28;20344;-84
2021/06/13 04:28:43;;;;;;;11.55;8.07;;;;;;;;;;5097991;28;20082;-84
2021/06/13 04:31:12;;;;;;;9.25;8.00;;;;;;;;;;5098030;28;20020;-83
2021/06/13 04:33:38;;;;;;;9.18;8.27;;;;;;;;;;5097840;28;20313;-82
2021/06/13 04:36:05;;;;;;;9.48;8.48;;;;;;;;;;5097492;28;20035;-82
2021/06/13 04:38:31;;;;;;;11.43;8.63;;;;;;;;;;5096540;28;20032;-83
2021/06/13 04:40:57;;;;;;;11.20;8.35;;;;;;;;;;5096488;28;20032;-83
2021/06/13 04:43:23;;;;;;;10.23;8.38;;;;;;;;;;5096479;28;20034;-82
2021/06/13 04:45:49;;;;;;;9.50;8.50;;;;;;;;;;5094904;28;20048;-83
2021/06/13 04:48:17;;;;;;;10.15;8.50;;;;;;;;;;5097624;28;20055;-83
2021/06/13 04:50:43;;;;;;;11.20;8.48;;;;;;;;;;5097746;28;20020;-83
2021/06/13 04:53:30;;;;;;;9.35;8.23;;;;;;;;;;5097307;28;20317;-82
2021/06/13 04:55:57;;;;;;;9.45;8.45;;;;;;;;;;5097468;28;20024;-84
2021/06/13 04:58:25;;;;;;;9.95;7.82;;;;;;;;;;5090141;28;20112;-85
2021/06/13 05:00:51;;;;;;;8.88;8.07;;;;;;;;;;5096444;28;20028;-85
2021/06/13 05:03:18;;;;;;;10.27;7.78;;;;;;;;;;5100529;28;20062;-84
2021/06/13 05:05:44;;;;;;;8.90;7.47;;;;;;;;;;5101628;28;20047;-83
2021/06/13 05:08:10;;;;;;;8.52;7.68;;;;;;;;;;5088804;28;20509;-83
2021/06/13 05:10:36;;;;;;;9.90;7.38;;;;;;;;;;5081368;28;20032;-83
2021/06/13 05:13:12;;;;;;;10.73;7.68;;;;;;;;;;5081451;28;20029;-83
2021/06/13 05:15:38;;;;;;;9.25;7.13;;;;;;;;;;5080123;28;20299;-83
2021/06/13 05:18:04;;;;;;;8.40;7.00;;;;;;;;;;5081466;28;20025;-83
2021/06/13 05:20:30;;;;;;;8.43;6.68;;;;;;;;;;5080827;28;20028;-83
2021/06/13 05:22:58;;;;;;;8.27;7.47;;;;;;;;;;5080979;28;20468;-83
2021/06/13 05:25:26;;;;;;;9.38;6.88;;;;;;;;;;5080801;28;20397;-83
2021/06/13 05:27:53;;;;;;;8.23;6.15;;;;;;;;;;5080597;28;20032;-83
2021/06/13 05:30:37;;;;;;;6.85;6.15;;;;;;;;;;5088933;28;20028;-84
2021/06/13 05:33:04;;;;;;;6.43;5.78;;;;;;;;;;5079711;28;20322;-83
2021/06/13 05:35:30;;;;;;;6.68;6.07;;;;;;;;;;5080535;28;20021;-84
2021/06/13 05:37:56;;;;;;;8.82;5.63;;;;;;;;;;5080827;28;20020;-84
2021/06/13 05:40:23;;;;;;;6.70;5.10;;;;;;;;;;5080833;28;20017;-84
2021/06/13 05:42:51;;;;;;;6.65;5.68;;;;;;;;;;5079855;28;20025;-85
2021/06/13 05:45:18;;;;;;;9.57;5.65;;;;;;;;;;5080645;28;20455;-85
2021/06/13 05:47:44;;;;;;;5.38;4.85;;;;;;;;;;5080563;28;20072;-85
2021/06/13 05:50:11;;;;;;;7.18;5.03;;;;;;;;;;5086553;28;20028;-85
2021/06/13 05:52:38;;;;;;;6.22;4.97;;;;;;;;;;5082525;28;20365;-83
2021/06/13 05:55:04;;;;;;;7.40;5.20;;;;;;;;;;5080338;28;20425;-83
2021/06/13 05:57:31;;;;;;;11.00;5.20;;;;;;;;;;5080137;28;20151;-82
2021/06/13 05:59:59;;;;;;;11.45;8.77;;;;;;;;;;5079966;28;20052;-83
2021/06/13 06:02:25;;;;;;;8.45;6.13;;;;;;;;;;5098360;28;20032;-84
2021/06/13 06:04:51;;;;;;;8.55;6.00;;;;;;;;;;5088718;28;20026;-83
2021/06/13 06:07:17;;;;;;;12.55;4.93;;;;;;;;;;5086654;28;20029;-83
2021/06/13 06:09:44;;;;;;;6.88;5.65;;;;;;;;;;5097611;28;20032;-83
2021/06/13 06:12:11;;;;;;;14.07;4.32;;;;;;;;;;5094087;28;20023;-85
2021/06/13 06:14:37;;;;;;;10.48;3.90;;;;;;;;;;5081028;28;20313;-86
2021/06/13 06:17:03;;;;;;;8.52;6.35;;;;;;;;;;5085216;28;20024;-86
2021/06/13 06:19:29;;;;;;;9.68;6.13;;;;;;;;;;5082998;28;20052;-86
2021/06/13 06:21:56;;;;;;;9.05;5.93;;;;;;;;;;5080532;28;20044;-85
2021/06/13 06:24:22;;;;;;;6.80;3.13;;;;;;;;;;5081769;28;20033;-85
2021/06/13 06:26:49;;;;;;;7.88;5.63;;;;;;;;;;5090661;28;20032;-83
2021/06/13 06:29:15;;;;;;;10.13;4.95;;;;;;;;;;5085278;28;20092;-83
2021/06/13 06:32:18;;;;;;;10.50;3.63;;;;;;;;;;5085786;28;20016;-84
2021/06/13 06:34:44;;;;;;;9.38;5.60;;;;;;;;;;5085153;28;20471;-86
2021/06/13 06:37:10;;;;;;;7.38;3.35;;;;;;;;;;5087116;28;20082;-87
2021/06/13 06:39:36;;;;;;;11.90;5.32;;;;;;;;;;5078698;28;20024;-88
2021/06/13 06:42:03;;;;;;;7.05;3.45;;;;;;;;;;5098938;28;20031;-85
2021/06/13 06:44:34;;;;;;;6.63;3.95;;;;;;;;;;5098893;28;20366;-86
2021/06/13 06:47:02;;;;;;;9.57;3.80;;;;;;;;;;5091824;28;20122;-85
2021/06/13 06:49:31;;;;;;;4.80;3.20;;;;;;;;;;5087875;28;20113;-86
2021/06/13 06:51:58;;;;;;;6.03;3.17;;;;;;;;;;5078673;28;20021;-88
2021/06/13 06:54:24;;;;;;;5.55;3.90;;;;;;;;;;5080090;28;20100;-86
2021/06/13 06:56:50;;;;;;;5.45;2.92;;;;;;;;;;5079100;28;20091;-85
2021/06/13 06:59:16;;;;;;;6.15;3.05;;;;;;;;;;5079918;28;20052;-85
2021/06/13 07:01:42;;;;;;;4.50;2.80;;;;;;;;;;5098514;28;20060;-85
2021/06/13 07:04:10;;;;;;;8.13;3.50;;;;;;;;;;5099395;28;20035;-85
2021/06/13 07:06:36;;;;;;;7.63;3.17;;;;;;;;;;5087195;28;20361;-86
2021/06/13 07:09:03;;;;;;;7.35;2.33;;;;;;;;;;5078896;28;20024;-86
2021/06/13 07:11:29;;;;;;;5.13;2.38;;;;;;;;;;5078201;28;20027;-86
2021/06/13 07:13:55;;;;;;;8.27;2.53;;;;;;;;;;5079454;28;20033;-85
2021/06/13 07:19:25;;;;;;;12.02;2.80;;;;;;;;;;5079273;28;20100;-85
2021/06/13 07:21:51;;;;;;;5.68;2.65;;;;;;;;;;5078268;28;20036;-85
2021/06/13 07:24:18;;;;;;;10.52;2.95;;;;;;;;;;5078939;28;20027;-88
2021/06/13 07:26:44;;;;;;;5.85;2.53;;;;;;;;;;5077911;28;20372;-88
2021/06/13 07:29:10;;;;;;;7.65;2.47;;;;;;;;;;5079319;28;20040;-87
2021/06/13 07:37:43;;;;;;;3.85;2.40;;;;;;;;;;5078637;28;20031;-83
2021/06/13 07:40:10;;;;;;;5.68;2.40;;;;;;;;;;5094587;28;20023;-84
2021/06/13 07:42:36;;;;;;;7.70;2.35;;;;;;;;;;5097653;28;20067;-84
2021/06/13 07:45:02;;;;;;;5.57;2.88;;;;;;;;;;5098610;28;20031;-83
2021/06/13 07:47:33;;;;;;;7.20;2.97;;;;;;;;;;5072867;28;20135;-84
2021/06/13 07:49:59;;;;;;;10.23;2.63;;;;;;;;;;5079627;28;20093;-84
2021/06/13 07:52:25;;;;;;;5.60;2.45;;;;;;;;;;5077178;28;20024;-84
2021/06/13 07:54:51;;;;;;;7.65;2.33;;;;;;;;;;5077171;28;20025;-84
2021/06/13 07:57:18;;;;;;;7.22;2.22;;;;;;;;;;5077904;28;20426;-83
2021/06/13 07:59:44;;;;;;;5.70;2.60;;;;;;;;;;5091123;28;20039;-84
2021/06/13 08:02:28;;;;;;;3.88;2.42;;;;;;;;;;5098447;28;20069;-85
2021/06/13 08:04:59;;;;;;;5.13;2.22;;;;;;;;;;5097611;28;20027;-85
2021/06/13 08:07:25;;;;;;;9.23;2.22;;;;;;;;;;5089130;28;20028;-84
2021/06/13 08:09:51;;;;;;;4.03;2.25;;;;;;;;;;5079322;28;20432;-84
2021/06/13 08:12:18;;;;;;;7.55;2.13;;;;;;;;;;5092384;28;20027;-86
2021/06/13 08:14:44;;;;;;;8.57;2.28;;;;;;;;;;5084429;28;20020;-86
2021/06/13 08:17:29;;;;;;;8.48;2.72;;;;;;;;;;5093017;28;20066;-85
2021/06/13 08:19:55;;;;;;;6.15;1.90;;;;;;;;;;5086433;28;20025;-82
2021/06/13 08:22:21;;;;;;;4.90;1.60;;;;;;;;;;5080769;28;20035;-86
2021/06/13 08:24:47;;;;;;;8.60;1.65;;;;;;;;;;5086297;28;20024;-85
2021/06/13 08:27:13;;;;;;;6.63;1.50;;;;;;;;;;5097868;28;20329;-83
2021/06/13 08:29:41;;;;;;;3.90;1.40;;;;;;;;;;5087719;28;20021;-83
2021/06/13 08:32:08;;;;;;;9.02;1.50;;;;;;;;;;5077421;28;20107;-83
2021/06/13 08:34:34;;;;;;;8.27;1.98;;;;;;;;;;5076355;28;20036;-83
2021/06/13 08:37:00;;;;;;;5.90;1.70;;;;;;;;;;5088765;28;20529;-83
2021/06/13 08:39:26;;;;;;;4.70;1.60;;;;;;;;;;5076460;28;20041;-83
2021/06/13 08:41:52;;;;;;;4.13;1.27;;;;;;;;;;5087107;28;20028;-86
2021/06/13 08:44:18;;;;;;;6.20;1.70;;;;;;;;;;5094883;28;20024;-87
2021/06/13 08:46:45;;;;;;;4.20;2.08;;;;;;;;;;5078651;28;20048;-85
2021/06/13 08:49:11;;;;;;;7.95;2.88;;;;;;;;;;5094918;28;20058;-84
2021/06/13 08:51:38;;;;;;;11.93;3.88;;;;;;;;;;5076613;28;20081;-86
2021/06/13 08:54:04;;;;;;;5.70;1.90;;;;;;;;;;5090113;28;20069;-86
2021/06/13 08:56:30;;;;;;;9.75;2.00;;;;;;;;;;5094946;28;20462;-86
2021/06/13 08:58:56;;;;;;;8.07;2.75;;;;;;;;;;5096312;28;20052;-84
2021/06/13 09:01:23;;;;;;;8.13;2.60;;;;;;;;;;5096173;28;20036;-85
2021/06/13 09:03:49;;;;;;;4.60;1.65;;;;;;;;;;5097863;28;20103;-84
2021/06/13 09:06:15;;;;;;;9.88;2.08;;;;;;;;;;5097355;28;20058;-84
2021/06/13 09:08:42;;;;;;;12.57;4.07;;;;;;;;;;5097489;28;20055;-85
2021/06/13 09:11:09;;;;;;;6.53;1.95;;;;;;;;;;5097427;28;20025;-84
2021/06/13 09:13:37;;;;;;;4.03;1.50;;;;;;;;;;5097804;28;20025;-84
2021/06/13 09:16:05;;;;;;;3.90;1.58;;;;;;;;;;5097612;28;20017;-84
2021/06/13 09:18:35;;;;;;;4.07;1.65;;;;;;;;;;5093484;28;20025;-86
2021/06/13 09:21:02;;;;;;;3.28;1.60;;;;;;;;;;5080295;28;20055;-85
2021/06/13 09:23:29;;;;;;;3.55;1.77;;;;;;;;;;5081153;28;20024;-85
2021/06/13 09:26:00;;;;;;;5.93;1.60;;;;;;;;;;5096507;28;20032;-84
2021/06/13 09:28:27;;;;;;;4.30;1.87;;;;;;;;;;5085593;28;20474;-85
2021/06/13 09:30:54;;;;;;;9.35;1.95;;;;;;;;;;5086485;28;20433;-85
2021/06/13 09:33:29;;;;;;;4.88;2.50;;;;;;;;;;5084534;28;20099;-84
2021/06/13 09:35:56;;;;;;;4.63;1.40;;;;;;;;;;5078520;28;20031;-85
2021/06/13 09:38:25;;;;;;;6.53;1.55;;;;;;;;;;5095288;28;20036;-89
2021/06/13 09:40:57;;;;;;;3.55;1.25;;;;;;;;;;5085243;28;20159;-86
2021/06/13 09:43:45;;;;;;;5.25;1.40;;;;;;;;;;5081694;28;20031;-90
2021/06/13 09:46:17;;;;;;;5.78;1.60;;;;;;;;;;5093031;28;20413;-90
2021/06/13 09:48:44;;;;;;;4.43;1.42;;;;;;;;;;5077521;28;20040;-83
2021/06/13 09:51:12;;;;;;;6.95;1.40;;;;;;;;;;5098453;28;20028;-83
2021/06/13 09:53:43;;;;;;;8.82;1.55;;;;;;;;;;5099661;28;20119;-83
2021/06/13 09:56:11;;;;;;;8.68;1.60;;;;;;;;;;5097121;28;20039;-83
2021/06/13 09:59:07;;;;;;;4.20;1.52;;;;;;;;;;5080692;28;20051;-83
2021/06/13 10:01:45;;;;;;;4.82;1.38;;;;;;;;;;5044033;28;20542;-83
2021/06/13 10:04:20;;;;;;;5.13;1.35;;;;;;;;;;5058314;28;20377;-81
2021/06/13 10:06:49;;;;;;;6.55;1.40;;;;;;;;;;5058171;28;20064;-82
2021/06/13 10:09:16;;;;;;;3.08;1.40;;;;;;;;;;5041683;28;20358;-83
2021/06/13 10:11:43;;;;;;;4.18;1.55;;;;;;;;;;5058118;28;20044;-82
2021/06/13 10:14:11;;;;;;;5.93;1.58;;;;;;;;;;5057943;28;20107;-82
2021/06/13 10:16:41;;;;;;;8.38;2.08;;;;;;;;;;5058004;28;20028;-82
2021/06/13 10:19:11;;;;;;;8.57;1.40;;;;;;;;;;5057850;28;20060;-84
2021/06/13 10:21:39;;;;;;;2.92;1.55;;;;;;;;;;5041445;28;20067;-83
2021/06/13 10:24:10;;;;;;;5.15;1.67;;;;;;;;;;5057825;28;20033;-82
2021/06/13 10:26:38;;;;;;;12.73;3.05;;;;;;;;;;5057623;28;20063;-76
2021/06/13 10:29:04;;;;;;;10.45;1.60;;;;;;;;;;5057565;28;20056;-76
2021/06/13 10:31:31;;;;;;;3.92;1.60;;;;;;;;;;5070458;28;20060;-82
2021/06/13 10:33:57;;;;;;;6.25;2.10;;;;;;;;;;5078069;28;20040;-83
2021/06/13 10:36:23;;;;;;;5.10;1.52;;;;;;;;;;5077959;28;20095;-83
2021/06/13 10:38:50;;;;;;;5.22;1.25;;;;;;;;;;5079422;28;20115;-85
2021/06/13 10:41:16;;;;;;;4.32;1.42;;;;;;;;;;5079984;28;20066;-83
2021/06/13 10:43:43;;;;;;;5.28;1.80;;;;;;;;;;5079105;28;20055;-83
2021/06/13 10:46:14;;;;;;;4.13;1.70;;;;;;;;;;5079082;28;20028;-84
2021/06/13 10:48:42;;;;;;;4.53;1.40;;;;;;;;;;5078322;28;20064;-83
2021/06/13 10:51:27;;;;;;;3.75;1.33;;;;;;;;;;5078221;28;20254;-82
2021/06/13 10:53:54;;;;;;;3.95;1.50;;;;;;;;;;5079446;28;20104;-82
2021/06/13 10:56:24;;;;;;;4.45;1.10;;;;;;;;;;5079135;28;20025;-82
2021/06/13 10:58:52;;;;;;;5.53;1.42;;;;;;;;;;5079045;28;20322;-83
2021/06/13 11:01:27;;;;;;;4.82;1.13;;;;;;;;;;5084405;28;20057;-83
2021/06/13 11:04:07;;;;;;;4.57;1.27;;;;;;;;;;5099311;28;20028;-83
2021/06/13 11:06:48;;;;;;;2.55;1.20;;;;;;;;;;5099183;28;20035;-83
2021/06/13 11:09:15;;;;;;;13.02;1.63;;;;;;;;;;5099261;28;20098;-83
2021/06/13 11:11:43;;;;;;;4.78;1.27;;;;;;;;;;5094869;28;20360;-84
2021/06/13 11:14:39;;;;;;;6.78;1.38;;;;;;;;;;5081665;28;20050;-83
2021/06/13 11:17:05;;;;;;;4.15;1.40;;;;;;;;;;5064745;28;20040;-82
2021/06/13 11:19:35;;;;;;;3.72;1.25;;;;;;;;;;5060025;28;20536;-83
2021/06/13 11:22:18;;;;;;;9.02;1.30;;;;;;;;;;5059938;28;20044;-85
2021/06/13 11:24:49;;;;;;;7.03;1.35;;;;;;;;;;5059965;28;20036;-84
2021/06/13 11:27:15;;;;;;;5.70;1.98;;;;;;;;;;5059738;28;20072;-85
2021/06/13 11:29:53;;;;;;;5.45;1.30;;;;;;;;;;5048599;28;20044;-83
2021/06/13 11:32:38;;;;;;;8.55;1.45;;;;;;;;;;5056842;28;20025;-85
2021/06/13 11:35:28;;;;;;;8.02;1.48;;;;;;;;;;5056492;28;20033;-83
2021/06/13 11:38:19;;;;;;;3.90;1.20;;;;;;;;;;4977766;28;20126;-82
2021/06/13 11:40:45;;;;;;;;;;;;;;;;;;4959385;28;20437;-85
2021/06/13 11:43:13;;;;;;;4.30;1.30;;;;;;;;;;4977960;28;19906;-85
2021/06/13 11:45:50;;;;;;;5.40;1.55;;;;;;;;;;4977809;28;20538;-84
2021/06/13 11:48:19;;;;;;;6.05;1.40;;;;;;;;;;4977610;28;20039;-85
2021/06/13 11:51:00;;;;;;;6.72;1.40;;;;;;;;;;4977646;28;20027;-84
2021/06/13 11:53:46;;;;;;;9.52;1.73;;;;;;;;;;4997257;28;20133;-84
2021/06/13 11:56:43;;;;;;;4.57;1.17;;;;;;;;;;4977338;28;20039;-83
2021/06/13 11:59:13;;;;;;;4.95;1.27;;;;;;;;;;4961173;28;20037;-81
2021/06/13 12:01:59;;;;;;;5.70;1.52;;;;;;;;;;4981217;28;20097;-83
2021/06/13 12:04:26;;;;;;;7.80;1.10;;;;;;;;;;4980063;28;20117;-83
2021/06/13 12:06:53;;;;;;;4.53;1.17;;;;;;;;;;4996584;28;20073;-83
2021/06/13 12:09:20;;;;;;;3.97;1.10;;;;;;;;;;4996891;28;20479;-84
2021/06/13 12:11:50;;;;;;;5.15;1.38;;;;;;;;;;4995792;28;20118;-82
2021/06/13 12:14:23;;;;;;;4.65;1.20;;;;;;;;;;5001519;28;20116;-82
2021/06/13 12:16:54;;;;;;;4.70;1.30;;;;;;;;;;5016487;28;20033;-84
2021/06/13 12:19:32;;;;;;;7.90;1.35;;;;;;;;;;5023285;28;20335;-86
2021/06/13 12:22:20;;;;;;;6.15;1.35;;;;;;;;;;4999797;28;20053;-84
2021/06/13 12:27:26;;;;;;;7.07;1.55;;;;;;;;;;5026778;28;20420;-84
2021/06/13 12:29:54;;;;;;;2.35;1.23;;;;;;;;;;5019565;28;20447;-84
2021/06/13 12:32:20;;;;;;;3.28;1.13;;;;;;;;;;5024133;28;20056;-86
2021/06/13 12:35:04;;;;;;;8.43;1.27;;;;;;;;;;5105706;28;20080;-85
2021/06/13 12:37:30;;;;;;;5.15;1.50;;;;;;;;;;5119081;28;20043;-85
2021/06/13 12:39:58;;;;;;;6.38;1.50;;;;;;;;;;5118431;28;20028;-84
2021/06/13 12:42:25;;;;;;;5.97;1.40;;;;;;;;;;5118763;28;20054;-85
2021/06/13 12:45:06;;;;;;;4.40;1.45;;;;;;;;;;5101784;28;20077;-85
2021/06/13 12:47:32;;;;;;;8.57;1.48;;;;;;;;;;5089549;28;20056;-84
2021/06/13 12:49:59;;;;;;;7.10;1.50;;;;;;;;;;5077998;28;20017;-83
2021/06/13 12:52:25;;;;;;;6.90;1.77;;;;;;;;;;5084868;28;20028;-84
2021/06/13 12:54:58;;;;;;;9.93;1.50;;;;;;;;;;5097603;28;20075;-84
2021/06/13 12:57:25;;;;;;;7.57;1.40;;;;;;;;;;5098945;28;20081;-84
2021/06/13 12:59:51;;;;;;;7.15;1.60;;;;;;;;;;5098922;28;20078;-84
2021/06/13 13:02:17;;;;;;;2.90;1.20;;;;;;;;;;5098918;28;20030;-83
2021/06/13 13:04:44;;;;;;;8.82;2.15;;;;;;;;;;5098241;28;20099;-84
2021/06/13 13:07:10;;;;;;;6.43;1.80;;;;;;;;;;5098464;28;20028;-84
2021/06/13 13:09:36;;;;;;;6.38;1.30;;;;;;;;;;5099547;28;20016;-85
2021/06/13 13:12:02;;;;;;;5.07;1.45;;;;;;;;;;5096549;28;20115;-86
2021/06/13 13:14:28;;;;;;;9.57;1.50;;;;;;;;;;5097731;28;20027;-83
2021/06/13 13:16:54;;;;;;;4.40;1.38;;;;;;;;;;5097288;28;20028;-84
2021/06/13 13:19:29;;;;;;;8.77;2.00;;;;;;;;;;5097042;28;20044;-83
2021/06/13 13:21:55;;;;;;;5.53;1.70;;;;;;;;;;5097238;28;20444;-84
2021/06/13 13:24:35;;;;;;;6.38;1.60;;;;;;;;;;5099164;28;20036;-83
2021/06/13 13:27:05;;;;;;;5.78;1.63;;;;;;;;;;5100180;28;20461;-84
2021/06/13 13:29:38;;;;;;;9.20;1.30;;;;;;;;;;5101298;28;20024;-83
2021/06/13 13:32:04;;;;;;;8.85;1.25;;;;;;;;;;5101214;28;20287;-83
2021/06/13 13:34:34;;;;;;;9.98;1.60;;;;;;;;;;5100459;28;20020;-83
2021/06/13 13:37:11;;;;;;;3.53;1.13;;;;;;;;;;5100723;28;20035;-82
2021/06/13 13:39:37;;;;;;;5.00;1.90;;;;;;;;;;5096828;28;20051;-77
2021/06/13 13:42:06;;;;;;;5.32;1.30;;;;;;;;;;5085670;28;20050;-83
2021/06/13 13:44:34;;;;;;;6.40;1.52;;;;;;;;;;5081501;28;20061;-84
2021/06/13 13:47:03;;;;;;;3.22;1.42;;;;;;;;;;5092246;28;20040;-85
2021/06/13 13:49:30;;;;;;;6.82;1.45;;;;;;;;;;5098231;28;20024;-82
2021/06/13 13:51:56;;;;;;;6.13;1.23;;;;;;;;;;5095539;28;20091;-83
2021/06/13 13:54:28;;;;;;;7.72;1.60;;;;;;;;;;5098791;28;20414;-84
2021/06/13 13:56:56;;;;;;;5.13;1.70;;;;;;;;;;5080247;28;20032;-72
2021/06/13 13:59:23;;;;;;;8.13;4.88;;;;;;;;;;5079744;28;20029;-71
2021/06/13 14:01:49;;;;;;;5.32;2.42;;;;;;;;;;5079981;28;20029;-72
2021/06/13 14:04:15;;;;;;;7.05;1.88;;;;;;;;;;5084555;28;20330;-72
2021/06/13 14:06:41;;;;;;;5.13;1.88;;;;;;;;;;5087441;28;20039;-71
2021/06/13 14:09:07;;;;;;;6.00;2.08;;;;;;;;;;5089791;28;20040;-72
2021/06/13 14:11:34;;;;;;;7.57;1.88;;;;;;;;;;5098812;28;20432;-72
2021/06/13 14:14:00;;;;;;;4.85;1.35;;;;;;;;;;5099425;28;20394;-72
2021/06/13 14:16:26;;;;;;;3.95;1.83;;;;;;;;;;5099997;28;20028;-72
2021/06/13 14:18:53;;;;;;;6.53;1.70;;;;;;;;;;5098100;28;20028;-72
2021/06/13 14:21:22;;;;;;;7.93;1.80;;;;;;;;;;5100014;28;20024;-72
2021/06/13 14:23:49;;;;;;;6.40;1.73;;;;;;;;;;5081497;28;20078;-71
2021/06/13 14:26:15;;;;;;;12.55;5.07;;;;;;;;;;5079325;28;20120;-83
2021/06/13 14:28:41;;;;;;;9.50;2.15;;;;;;;;;;5080002;28;20028;-86
2021/06/13 14:31:07;;;;;;;6.30;2.80;;;;;;;;;;5079121;28;20314;-89
2021/06/13 14:33:33;;;;;;;26.45;16.75;;;;;;;;;;5081640;28;20414;-89
2021/06/13 14:36:00;;;;;;;9.88;1.67;;;;;;;;;;5079234;28;20031;-88
2021/06/13 14:38:26;;;;;;;9.40;3.47;;;;;;;;;;5079063;28;20066;-87
2021/06/13 14:40:52;;;;;;;8.73;2.63;;;;;;;;;;5079911;28;20314;-89
2021/06/13 14:43:18;;;;;;;9.38;3.28;;;;;;;;;;5080042;28;20027;-86
2021/06/13 14:45:45;;;;;;;9.20;4.18;;;;;;;;;;5079693;28;20031;-89
2021/06/13 14:48:11;;;;;;;8.98;4.63;;;;;;;;;;5079721;28;20048;-87
2021/06/13 14:50:38;;;;;;;8.00;2.17;;;;;;;;;;5078985;28;20078;-88
2021/06/13 14:53:06;;;;;;;5.45;2.58;;;;;;;;;;5078591;28;20024;-87
2021/06/13 14:55:32;;;;;;;8.85;1.90;;;;;;;;;;5078600;28;20036;-87
2021/06/13 14:57:58;;;;;;;5.68;2.60;;;;;;;;;;5078467;28;20035;-86
2021/06/13 15:00:24;;;;;;;7.82;1.90;;;;;;;;;;5083613;28;20476;-87
2021/06/13 15:06:09;;;;;;;2.75;1.52;;;;;;;;;;5079544;28;20023;-86